Ashland, Mississippi
Current Conditions -  °F | °C
As of 11:15 AM on Friday 19 Dec 2014 (Local Time) from KCRX Reporting Station
Overcast Overcast  
Wind Chill: 40°   Ceiling: 3800
Heat Index: 43°   Visibility: 10mi
Dew Point: 34°   Wind: 5mph
Humidity: 70%   Direction: NA
Pressure: 30.23"   Gusts: NA
Location:  34.83°N, 89.18°W
Report Text: KCRX 191715Z AUTO VRB04KT 10SM OVC038 06/01 A3023 RMK AO2
Loading
Personal Weather Stations






























Interactive Weather Map New forecast layout! Learn more

10-Day Weather Forecast

Advertisements
Track Severe Weather on mobile